This is the latest recevied weather packets stored in our database for station/object DB0TGO-10. If no packets are shown the sender has not sent any weather packets the latest 10 day(s).
| Time | Temp. | Humidity | Pressure | Rain* | Wind** | Luminosity | Snow |
|---|---|---|---|---|---|---|---|
| 1777870990 | 16.11° C | 67% | 1012.4 hPa | 0 mm | - | - | - |
| 1777867715 | 15.56° C | 73% | 1011.8 hPa | 0 mm | - | - | - |
| 1777864550 | 16.67° C | 65% | 1011.8 hPa | 0 mm | - | - | - |
| 1777861030 | 17.22° C | 60% | 1012.1 hPa | 0 mm | - | - | - |
| 1777857646 | 17.78° C | 55% | 1011.6 hPa | 0 mm | - | - | - |
| 1777854566 | 18.89° C | 50% | 1011.3 hPa | 0 mm | - | - | - |
| 1777851515 | 20° C | 44% | 1011.5 hPa | 0 mm | - | - | - |
| 1777848660 | 20° C | 48% | 1011.7 hPa | 0 mm | - | - | - |
| 1777845347 | 20.56° C | 49% | 1011.2 hPa | 0 mm | - | - | - |
| 1777842304 | 20.56° C | 46% | 1010.9 hPa | 0 mm | - | - | - |
| 1777839130 | 21.11° C | 48% | 1010.7 hPa | 0 mm | - | - | - |
| 1777833089 | 23.89° C | 41% | 1010.1 hPa | 0 mm | - | - | - |
| 1777830245 | 26.67° C | 34% | 1010 hPa | 0 mm | - | - | - |
| 1777827399 | 31.11° C | 23% | 1010 hPa | 0 mm | - | - | - |
| 1777824080 | 29.44° C | 23% | 1010.3 hPa | 0 mm | - | - | - |
| 1777820659 | 30° C | 26% | 1010.6 hPa | 0 mm | - | - | - |
| 1777817269 | 30° C | 25% | 1011.3 hPa | 0 mm | - | - | - |
| 1777814290 | 29.44° C | 23% | 1011.6 hPa | 0 mm | - | - | - |
| 1777810795 | 28.33° C | 29% | 1012.1 hPa | 0 mm | - | - | - |
| 1777807576 | 28.33° C | 28% | 1012.5 hPa | 0 mm | - | - | - |
| 1777804321 | 27.78° C | 27% | 1013 hPa | 0 mm | - | - | - |
| 1777801200 | 26.67° C | 34% | 1013.4 hPa | 0 mm | - | - | - |
| 1777795036 | 22.78° C | 39% | 1013.9 hPa | 0 mm | - | - | - |
| 1777791992 | 19.44° C | 47% | 1013.9 hPa | 0 mm | - | - | - |
| 1777788985 | 21.67° C | 44% | 1014 hPa | 0 mm | - | - | - |
* Rain latest hour (hover to see other rain measurements)
** Current wind speed in m/s (hover to see current wind gust speed)